createdAt,value
2019-05-22T00:02:25.578Z,100.00
2019-05-22T00:05:10.717Z,100.00
2019-05-22T00:07:37.925Z,100.00
2019-05-22T00:10:07.173Z,100.00
2019-05-22T00:12:46.300Z,100.00
2019-05-22T00:15:04.362Z,100.00
2019-05-22T00:17:31.657Z,100.00
2019-05-22T00:19:58.677Z,100.00
2019-05-22T00:22:26.680Z,100.00
2019-05-22T00:24:53.903Z,100.00
2019-05-22T00:27:21.628Z,100.00
2019-05-22T00:29:47.774Z,100.00
2019-05-22T00:32:15.489Z,100.00
2019-05-22T00:34:42.430Z,100.00
2019-05-22T00:37:08.618Z,100.00
2019-05-22T00:39:36.567Z,100.00
2019-05-22T00:42:02.785Z,100.00
2019-05-22T00:44:28.784Z,100.00
2019-05-22T00:46:55.005Z,100.00
2019-05-22T00:49:21.720Z,100.00
2019-05-22T00:51:56.250Z,100.00
2019-05-22T00:54:24.224Z,100.00
2019-05-22T00:56:53.011Z,100.00
2019-05-22T00:59:23.422Z,100.00
2019-05-22T01:01:54.926Z,100.00
2019-05-22T01:04:39.503Z,100.00
2019-05-22T01:07:11.407Z,100.00
2019-05-22T01:09:43.840Z,100.00
2019-05-22T03:07:10.024Z,100.00
2019-05-22T03:09:39.917Z,100.00
2019-05-22T03:12:07.728Z,100.00
2019-05-22T03:14:35.049Z,100.00
2019-05-22T03:17:03.835Z,100.00
2019-05-22T03:19:40.964Z,100.00
2019-05-22T03:22:18.207Z,100.00
2019-05-22T03:24:44.075Z,100.00
2019-05-22T03:27:11.220Z,100.00
2019-05-22T03:29:40.835Z,100.00
2019-05-22T03:32:07.242Z,100.00
2019-05-22T03:34:34.635Z,100.00
2019-05-22T03:37:01.311Z,100.00
2019-05-22T03:39:27.195Z,100.00
2019-05-22T03:41:53.034Z,100.00
2019-05-22T03:44:18.795Z,100.00
2019-05-22T03:46:45.603Z,100.00
2019-05-22T03:49:29.383Z,100.00
2019-05-22T03:51:45.364Z,100.00
2019-05-22T03:54:12.082Z,100.00
2019-05-22T03:56:39.402Z,100.00
2019-05-22T03:59:05.864Z,100.00
2019-05-22T04:01:32.781Z,100.00
2019-05-22T04:03:59.360Z,100.00
2019-05-22T04:06:25.525Z,100.00
2019-05-22T04:08:51.546Z,100.00
2019-05-22T04:11:18.224Z,100.00
2019-05-22T04:13:44.017Z,100.00
2019-05-22T04:16:12.111Z,100.00
2019-05-22T04:18:38.420Z,100.00
2019-05-22T04:21:04.451Z,100.00
2019-05-22T04:23:30.337Z,100.00
2019-05-22T04:25:56.123Z,100.00
2019-05-22T04:28:23.276Z,100.00
2019-05-22T04:30:49.926Z,100.00
2019-05-22T04:33:16.799Z,100.00
2019-05-22T04:35:42.587Z,100.00
2019-05-22T04:38:09.705Z,100.00
2019-05-22T04:40:42.779Z,100.00
2019-05-22T04:43:10.401Z,100.00
2019-05-22T04:45:36.212Z,100.00
2019-05-22T04:48:02.922Z,100.00
2019-05-22T04:50:29.865Z,100.00
2019-05-22T04:52:56.073Z,100.00
2019-05-22T04:55:23.473Z,100.00
2019-05-22T04:57:49.376Z,100.00
2019-05-22T05:00:16.001Z,100.00
2019-05-22T05:02:42.120Z,100.00
2019-05-22T05:05:10.235Z,100.00
2019-05-22T05:07:37.424Z,100.00
2019-05-22T05:10:04.730Z,100.00
2019-05-22T05:12:30.564Z,100.00
2019-05-22T05:14:56.988Z,100.00
2019-05-22T05:17:23.327Z,100.00
2019-05-22T05:19:49.357Z,100.00
2019-05-22T05:22:17.785Z,100.00
2019-05-22T05:24:43.591Z,100.00
2019-05-22T05:27:10.346Z,100.00
2019-05-22T05:29:36.123Z,100.00
2019-05-22T05:32:02.156Z,100.00
2019-05-22T05:34:35.355Z,100.00
2019-05-22T05:37:01.775Z,99.54
2019-05-22T05:39:39.659Z,99.26
2019-05-22T05:42:05.831Z,99.99
2019-05-22T05:44:33.037Z,100.00
2019-05-22T05:46:59.162Z,99.29
2019-05-22T05:49:26.117Z,99.73
2019-05-22T05:51:52.534Z,99.66
2019-05-22T05:54:18.350Z,100.00
2019-05-22T05:56:44.657Z,100.00
2019-05-22T05:59:11.855Z,100.00
2019-05-22T06:01:39.765Z,100.00
2019-05-22T06:04:05.686Z,100.00
2019-05-22T06:06:35.470Z,100.00
2019-05-22T06:09:03.182Z,100.00
2019-05-22T06:11:32.806Z,100.00
2019-05-22T06:14:00.220Z,99.54
2019-05-22T06:16:49.423Z,99.26
2019-05-22T06:19:15.788Z,98.96
2019-05-22T06:21:46.573Z,98.33
2019-05-22T06:24:19.299Z,98.61
2019-05-22T06:26:49.157Z,98.74
2019-05-22T06:29:15.328Z,98.76
2019-05-22T06:32:03.790Z,97.04
2019-05-22T06:34:29.876Z,96.87
2019-05-22T06:36:59.508Z,97.37
2019-05-22T06:39:25.349Z,96.54
2019-05-22T06:41:51.410Z,95.93
2019-05-22T06:44:26.648Z,96.25
2019-05-22T06:46:52.449Z,97.56
2019-05-22T06:49:34.348Z,96.57
2019-05-22T06:52:01.547Z,95.56
2019-05-22T06:54:27.743Z,96.02
2019-05-22T06:56:53.542Z,95.85
2019-05-22T06:59:19.411Z,95.88
2019-05-22T07:04:09.914Z,95.32
2019-05-22T07:06:36.046Z,95.74
2019-05-22T07:09:03.121Z,95.83
2019-05-22T07:11:29.324Z,95.67
2019-05-22T07:13:55.607Z,94.46
2019-05-22T07:16:21.420Z,94.51
2019-05-22T07:18:47.230Z,93.78
2019-05-22T07:21:13.264Z,92.12
2019-05-22T07:23:39.127Z,92.47
2019-05-22T07:26:05.233Z,91.95
2019-05-22T07:28:31.420Z,92.05
2019-05-22T07:30:57.850Z,91.72
2019-05-22T07:33:23.759Z,90.73
2019-05-22T07:36:08.625Z,90.89
2019-05-22T07:38:19.566Z,91.10
2019-05-22T07:40:49.883Z,90.46
2019-05-22T07:43:14.385Z,89.37
2019-05-22T07:45:40.637Z,90.17
2019-05-22T07:48:07.242Z,91.42
2019-05-22T07:50:35.292Z,89.75
2019-05-22T07:53:01.797Z,90.33
2019-05-22T07:55:30.217Z,90.23
2019-05-22T07:58:02.985Z,91.38
2019-05-22T08:00:29.319Z,90.09
2019-05-22T08:02:55.213Z,87.53
2019-05-22T08:05:26.996Z,87.07
2019-05-22T08:07:53.097Z,84.93
2019-05-22T08:10:20.384Z,86.14
2019-05-22T08:12:47.233Z,87.10
2019-05-22T08:15:13.499Z,87.66
2019-05-22T08:17:39.873Z,87.59
2019-05-22T08:20:05.902Z,87.49
2019-05-22T08:22:32.244Z,86.88
2019-05-22T08:24:58.198Z,85.71
2019-05-22T08:27:23.970Z,86.63
2019-05-22T08:29:50.058Z,84.78
2019-05-22T08:32:17.020Z,84.86
2019-05-22T08:34:43.361Z,83.63
2019-05-22T08:37:12.990Z,84.08
2019-05-22T08:39:39.388Z,82.37
2019-05-22T08:42:06.471Z,84.92
2019-05-22T08:44:33.107Z,83.70
2019-05-22T08:46:59.609Z,82.60
2019-05-22T08:49:25.536Z,80.10
2019-05-22T08:51:51.758Z,78.85
2019-05-22T08:54:18.148Z,75.99
2019-05-22T08:56:47.772Z,76.29
2019-05-22T08:59:19.627Z,77.14
2019-05-22T09:01:41.648Z,76.18
2019-05-22T09:04:08.131Z,76.04
2019-05-22T09:06:34.026Z,78.63
2019-05-22T09:08:59.838Z,76.16
2019-05-22T09:11:25.724Z,77.13
2019-05-22T09:13:51.788Z,73.61
2019-05-22T09:16:19.655Z,73.63
2019-05-22T09:18:45.650Z,77.36
2019-05-22T09:21:11.638Z,75.06
2019-05-22T09:23:38.136Z,76.92
2019-05-22T09:26:05.027Z,78.33
2019-05-22T09:28:30.929Z,77.48
2019-05-22T09:30:56.762Z,78.72
2019-05-22T09:33:23.422Z,78.27
2019-05-22T09:35:49.212Z,75.00
2019-05-22T09:38:15.124Z,72.73
2019-05-22T09:40:41.049Z,70.96
2019-05-22T09:43:07.073Z,70.96
2019-05-22T09:45:37.769Z,74.22
2019-05-22T09:48:04.270Z,74.18
2019-05-22T09:50:30.302Z,74.44
2019-05-22T09:52:58.297Z,75.42
2019-05-22T09:55:24.403Z,74.51
2019-05-22T09:57:50.417Z,73.88
2019-05-22T10:00:17.755Z,73.51
2019-05-22T10:02:43.963Z,74.94
2019-05-22T10:05:10.297Z,72.91
2019-05-22T10:07:57.108Z,71.05
2019-05-22T10:10:08.073Z,72.37
2019-05-22T10:12:34.222Z,71.21
2019-05-22T10:15:01.485Z,72.42
2019-05-22T10:17:28.422Z,73.22
2019-05-22T10:19:54.606Z,72.74
2019-05-22T10:22:27.523Z,71.44
2019-05-22T10:25:12.118Z,71.44
2019-05-22T10:27:21.376Z,71.77
2019-05-22T10:29:47.262Z,67.17
2019-05-22T10:32:13.264Z,69.29
2019-05-22T10:34:39.159Z,67.07
2019-05-22T10:37:06.423Z,65.24
2019-05-22T10:39:33.539Z,64.61
2019-05-22T10:41:59.673Z,63.16
2019-05-22T10:44:25.693Z,63.16
2019-05-22T10:46:51.475Z,63.89
2019-05-22T10:49:17.494Z,65.15
2019-05-22T10:51:43.361Z,66.72
2019-05-22T10:54:12.043Z,62.40
2019-05-22T10:56:37.962Z,63.50
2019-05-22T10:59:08.424Z,63.41
2019-05-22T11:01:37.562Z,64.99
2019-05-22T11:04:03.459Z,64.29
2019-05-22T11:06:29.731Z,63.41
2019-05-22T11:08:55.899Z,64.04
2019-05-22T11:11:22.369Z,64.04
2019-05-22T11:14:00.569Z,60.51
2019-05-22T11:16:16.679Z,57.30
2019-05-22T11:18:43.021Z,58.98
2019-05-22T11:21:10.566Z,59.90
2019-05-22T11:23:50.346Z,59.90
2019-05-22T11:26:04.281Z,58.99
2019-05-22T11:28:30.832Z,58.99
2019-05-22T11:31:00.009Z,57.75
2019-05-22T11:33:26.024Z,60.19
2019-05-22T11:35:52.220Z,60.79
2019-05-22T11:38:18.336Z,59.41
2019-05-22T11:40:44.136Z,59.72
2019-05-22T11:43:12.420Z,60.00
2019-05-22T11:45:38.254Z,57.36
2019-05-22T11:48:04.552Z,55.35
2019-05-22T11:50:32.515Z,57.29
2019-05-22T11:52:58.418Z,58.24
2019-05-22T11:55:42.168Z,58.29
2019-05-22T11:57:54.793Z,55.84
2019-05-22T12:00:22.089Z,56.13
2019-05-22T12:02:48.868Z,57.43
2019-05-22T12:05:15.401Z,55.89
2019-05-22T12:07:44.627Z,52.78
2019-05-22T12:10:12.658Z,52.13
2019-05-22T12:12:39.700Z,51.72
2019-05-22T12:15:07.742Z,56.07
2019-05-22T12:17:38.228Z,56.01
2019-05-22T12:20:04.953Z,54.13
2019-05-22T12:22:30.827Z,55.51
2019-05-22T12:24:56.636Z,54.29
2019-05-22T12:27:22.834Z,53.52
2019-05-22T12:29:49.245Z,49.97
2019-05-22T12:32:15.369Z,50.39
2019-05-22T12:34:41.486Z,51.55
2019-05-22T12:37:08.470Z,54.11
2019-05-22T12:39:36.954Z,53.97
2019-05-22T12:42:03.459Z,49.89
2019-05-22T12:44:29.486Z,52.16
2019-05-22T12:46:55.407Z,51.82
2019-05-22T12:49:25.694Z,50.82
2019-05-22T12:51:51.506Z,53.06
2019-05-22T12:54:17.394Z,52.70
2019-05-22T12:56:44.507Z,53.55
2019-05-22T12:59:11.941Z,52.36
2019-05-22T13:01:38.246Z,50.38
2019-05-22T13:04:05.232Z,50.64
2019-05-22T13:06:32.809Z,47.56
2019-05-22T13:08:58.710Z,48.04
2019-05-22T13:11:24.477Z,48.58
2019-05-22T13:13:50.379Z,49.14
2019-05-22T13:16:19.500Z,49.80
2019-05-22T13:18:46.012Z,50.74
2019-05-22T13:21:17.850Z,49.24
2019-05-22T13:23:43.960Z,47.50
2019-05-22T13:26:09.833Z,47.79
2019-05-22T13:28:37.857Z,49.58
2019-05-22T13:31:05.242Z,49.16
2019-05-22T13:33:34.774Z,47.03
2019-05-22T13:36:00.651Z,48.30
2019-05-22T13:38:26.756Z,47.82
2019-05-22T13:40:53.490Z,49.30
2019-05-22T13:43:19.292Z,52.29
2019-05-22T13:45:45.484Z,51.76
2019-05-22T13:48:11.576Z,51.45
2019-05-22T13:50:37.831Z,51.40
2019-05-22T13:53:08.157Z,52.10
2019-05-22T13:55:35.027Z,49.78
2019-05-22T13:58:02.136Z,47.85
2019-05-22T14:00:28.407Z,46.88
2019-05-22T14:02:54.361Z,45.76
2019-05-22T14:05:20.519Z,47.67
2019-05-22T14:07:46.389Z,48.66
2019-05-22T14:10:12.494Z,48.49
2019-05-22T14:12:38.704Z,48.87
2019-05-22T14:15:07.830Z,50.08
2019-05-22T14:17:34.057Z,46.62
2019-05-22T14:19:59.982Z,46.04
2019-05-22T14:22:26.135Z,45.98
2019-05-22T14:24:55.216Z,47.21
2019-05-22T14:27:21.036Z,47.04
2019-05-22T14:29:50.132Z,46.31
2019-05-22T14:32:16.334Z,45.08
2019-05-22T14:34:44.325Z,45.29
2019-05-22T14:37:11.482Z,45.38
2019-05-22T14:39:40.720Z,45.85
2019-05-22T14:42:07.741Z,46.40
2019-05-22T14:44:34.436Z,46.23
2019-05-22T14:47:13.304Z,47.83
2019-05-22T14:49:28.311Z,48.07
2019-05-22T14:51:54.289Z,49.30
2019-05-22T14:54:21.068Z,50.99
2019-05-22T14:56:47.670Z,51.94
2019-05-22T14:59:13.489Z,51.11
2019-05-22T15:01:42.530Z,49.39
2019-05-22T15:04:08.413Z,50.47
2019-05-22T15:06:37.548Z,50.31
2019-05-22T15:09:05.884Z,50.41
2019-05-22T15:11:31.894Z,50.75
2019-05-22T15:13:57.980Z,52.02
2019-05-22T15:16:24.103Z,52.46
2019-05-22T15:18:50.140Z,53.26
2019-05-22T15:21:16.583Z,51.43
2019-05-22T15:23:42.755Z,51.79
2019-05-22T15:26:08.858Z,51.13
2019-05-22T15:28:39.026Z,50.42
2019-05-22T15:31:04.816Z,52.58
2019-05-22T15:33:31.515Z,51.84
2019-05-22T15:35:57.961Z,50.13
2019-05-22T15:38:30.318Z,49.51
2019-05-22T15:40:56.099Z,49.87
2019-05-22T15:43:22.981Z,52.14
2019-05-22T15:45:49.468Z,51.14
2019-05-22T15:48:18.346Z,53.41
2019-05-22T15:50:46.305Z,53.78
2019-05-22T15:53:15.172Z,54.52
2019-05-22T15:55:42.268Z,54.49
2019-05-22T15:58:09.219Z,54.89
2019-05-22T16:00:36.931Z,56.45
2019-05-22T16:03:09.114Z,55.86
2019-05-22T16:05:36.407Z,54.88
2019-05-22T16:08:03.379Z,55.18
2019-05-22T16:10:29.387Z,55.98
2019-05-22T16:12:55.488Z,56.65
2019-05-22T16:15:22.167Z,56.33
2019-05-22T16:17:48.677Z,55.76
2019-05-22T16:20:17.941Z,56.88
2019-05-22T16:22:43.802Z,55.85
2019-05-22T16:25:10.407Z,54.02
2019-05-22T16:27:39.626Z,52.09
2019-05-22T16:30:06.085Z,53.01
2019-05-22T16:32:32.642Z,51.45
2019-05-22T16:34:58.528Z,51.67
2019-05-22T16:37:24.848Z,52.12
2019-05-22T16:39:50.970Z,54.13
2019-05-22T16:42:17.031Z,56.05
2019-05-22T16:44:42.834Z,56.60
2019-05-22T16:47:09.269Z,56.80
2019-05-22T16:49:35.397Z,57.11
2019-05-22T16:52:03.432Z,56.17
2019-05-22T16:54:30.129Z,54.74
2019-05-22T16:56:56.046Z,55.11
2019-05-22T16:59:22.349Z,55.67
2019-05-22T17:01:59.406Z,54.87
2019-05-22T17:04:16.676Z,55.48
2019-05-22T17:06:43.852Z,55.14
2019-05-22T17:09:12.440Z,54.83
2019-05-22T17:11:39.311Z,55.31
2019-05-22T17:14:06.120Z,56.16
2019-05-22T17:16:34.103Z,55.20
2019-05-22T17:19:00.824Z,54.44
2019-05-22T17:21:27.095Z,55.53
2019-05-22T17:23:53.414Z,54.71
2019-05-22T17:26:19.398Z,55.53
2019-05-22T17:28:46.811Z,56.17
2019-05-22T17:31:14.460Z,57.12
2019-05-22T17:33:40.505Z,57.63
2019-05-22T17:36:07.029Z,56.96
2019-05-22T17:38:33.127Z,56.93
2019-05-22T17:40:59.882Z,57.60
2019-05-22T17:43:28.097Z,57.60
2019-05-22T17:45:54.858Z,58.50
2019-05-22T17:48:21.176Z,58.50
2019-05-22T17:50:47.660Z,59.83
2019-05-22T17:53:14.357Z,60.74
2019-05-22T17:55:41.796Z,61.47
2019-05-22T17:58:09.100Z,62.34
2019-05-22T18:00:37.083Z,62.34
2019-05-22T18:03:03.819Z,63.14
2019-05-22T18:05:30.107Z,63.14
2019-05-22T18:07:56.231Z,63.92
2019-05-22T18:10:22.385Z,63.91
2019-05-22T18:12:48.459Z,64.80
2019-05-22T18:15:17.494Z,64.48
2019-05-22T18:17:43.600Z,64.95
2019-05-22T18:20:12.835Z,64.16
2019-05-22T18:22:39.970Z,64.16
2019-05-22T18:25:06.066Z,66.85
2019-05-22T18:27:32.093Z,66.42
2019-05-22T18:29:58.276Z,66.42
2019-05-22T18:32:24.225Z,67.13
2019-05-22T18:34:49.992Z,68.04
2019-05-22T18:37:18.729Z,68.39
2019-05-22T18:39:44.780Z,68.49
2019-05-22T18:42:13.937Z,69.52
2019-05-22T18:44:40.027Z,70.20
2019-05-22T18:47:09.636Z,71.74
2019-05-22T18:49:35.550Z,71.90
2019-05-22T18:52:01.724Z,72.59
2019-05-22T18:54:27.521Z,72.82
2019-05-22T18:56:56.491Z,73.54
2019-05-22T18:59:22.553Z,73.25
2019-05-22T19:01:48.554Z,73.46
2019-05-22T19:04:14.925Z,74.27
2019-05-22T19:06:41.249Z,74.40
2019-05-22T19:09:08.958Z,74.40
2019-05-22T19:11:34.827Z,74.41
2019-05-22T19:14:03.579Z,74.89
2019-05-22T19:16:29.715Z,75.46
2019-05-22T19:18:58.430Z,75.67
2019-05-22T19:21:24.239Z,76.15
2019-05-22T19:23:53.185Z,77.01
2019-05-22T19:26:19.099Z,76.56
2019-05-22T19:28:48.075Z,76.83
2019-05-22T19:31:14.136Z,77.59
2019-05-22T19:33:43.094Z,77.99
2019-05-22T19:36:09.098Z,77.71
2019-05-22T19:38:35.081Z,77.83
2019-05-22T19:41:01.181Z,78.51
2019-05-22T19:43:27.411Z,79.09
2019-05-22T19:45:53.338Z,79.62
2019-05-22T19:48:19.628Z,80.06
2019-05-22T19:50:48.991Z,80.46
2019-05-22T19:53:19.250Z,80.72
2019-05-22T19:55:44.798Z,80.99
2019-05-22T19:58:11.994Z,81.44
2019-05-22T20:00:37.818Z,81.70
2019-05-22T20:03:04.041Z,81.85
2019-05-22T20:05:34.759Z,81.83
2019-05-22T20:08:00.566Z,81.77
2019-05-22T20:10:26.610Z,82.36
2019-05-22T20:12:52.835Z,82.89
2019-05-22T20:15:19.049Z,83.30
2019-05-22T20:17:45.063Z,83.39
2019-05-22T20:20:12.043Z,83.31
2019-05-22T20:22:43.342Z,83.37
2019-05-22T20:25:09.333Z,82.91
2019-05-22T20:27:35.754Z,82.81
2019-05-22T20:30:05.153Z,83.13
2019-05-22T20:32:31.169Z,83.25
2019-05-22T20:34:57.035Z,83.22
2019-05-22T20:37:23.067Z,83.69
2019-05-22T20:39:49.082Z,84.21
2019-05-22T20:42:17.901Z,84.23
2019-05-22T20:44:44.567Z,84.53
2019-05-22T20:47:16.060Z,84.50
2019-05-22T20:49:43.434Z,84.44
2019-05-22T20:52:11.144Z,84.53
2019-05-22T20:54:37.673Z,84.78
2019-05-22T20:57:05.380Z,84.70
2019-05-22T20:59:31.286Z,84.64
2019-05-22T21:01:57.893Z,84.97
2019-05-22T21:04:24.607Z,85.30
2019-05-22T21:06:59.750Z,85.25
2019-05-22T21:09:26.142Z,85.01
2019-05-22T21:11:52.405Z,85.51
2019-05-22T21:14:18.763Z,85.57
2019-05-22T21:16:45.869Z,85.74
2019-05-22T21:19:13.791Z,85.57
2019-05-22T21:21:39.965Z,85.49
2019-05-22T21:24:11.548Z,85.27
2019-05-22T21:26:34.582Z,85.52
2019-05-22T21:29:00.779Z,85.81
2019-05-22T21:31:28.267Z,85.85
2019-05-22T21:33:54.664Z,85.70
2019-05-22T21:36:22.868Z,85.56
2019-05-22T21:38:49.061Z,85.54
2019-05-22T21:41:15.540Z,85.91
2019-05-22T21:43:41.356Z,86.55
2019-05-22T21:46:07.850Z,87.14
2019-05-22T21:48:33.682Z,87.15
2019-05-22T21:51:01.153Z,86.71
2019-05-22T21:53:27.767Z,86.77
2019-05-22T21:56:04.299Z,86.76
2019-05-22T21:58:22.112Z,86.16
2019-05-22T22:00:55.870Z,85.96
2019-05-22T22:03:28.073Z,85.86
2019-05-22T22:05:55.198Z,86.44
2019-05-22T22:08:21.114Z,86.94
2019-05-22T22:10:47.188Z,87.42
2019-05-22T22:13:14.013Z,87.11
2019-05-22T22:15:40.593Z,87.16
2019-05-22T22:18:06.879Z,87.21
2019-05-22T22:20:32.974Z,87.29
2019-05-22T22:22:59.102Z,87.75
2019-05-22T22:25:25.643Z,87.77
2019-05-22T22:27:51.651Z,87.49
2019-05-22T22:30:33.531Z,87.43
2019-05-22T22:33:04.005Z,87.83
2019-05-22T22:35:31.088Z,87.94
2019-05-22T22:37:57.199Z,87.62
2019-05-22T22:40:24.586Z,87.92
2019-05-22T22:42:52.311Z,87.83
2019-05-22T22:45:21.183Z,88.00
2019-05-22T22:47:47.426Z,87.71
2019-05-22T22:50:13.735Z,87.63
2019-05-22T22:52:41.389Z,87.96
2019-05-22T22:55:10.747Z,88.75
2019-05-22T22:57:37.669Z,88.36
2019-05-22T23:00:04.798Z,88.08
2019-05-22T23:02:32.103Z,88.13
2019-05-22T23:04:58.261Z,88.08
2019-05-22T23:07:24.689Z,88.39
2019-05-22T23:09:51.412Z,88.02
2019-05-22T23:12:19.524Z,88.58
2019-05-22T23:14:50.040Z,88.72
2019-05-22T23:17:15.927Z,89.07
2019-05-22T23:19:42.324Z,89.17
2019-05-22T23:22:09.496Z,89.13
2019-05-22T23:24:37.226Z,88.71
2019-05-22T23:27:05.203Z,88.18
2019-05-22T23:29:32.081Z,88.68
2019-05-22T23:31:58.294Z,88.90
2019-05-22T23:34:24.428Z,89.07
2019-05-22T23:36:50.654Z,89.31
2019-05-22T23:39:17.978Z,89.70
2019-05-22T23:41:45.807Z,89.55
2019-05-22T23:44:15.554Z,89.59
2019-05-22T23:46:42.211Z,89.67
2019-05-22T23:49:08.071Z,89.52
2019-05-22T23:51:34.077Z,90.03
2019-05-22T23:54:01.157Z,90.13
2019-05-22T23:56:27.072Z,89.95
2019-05-22T23:58:54.435Z,89.34
